KBDE/BDE METAR and TAF weather

Enter ICAO airport designator
Station Type Date Time Source
KBDE METAR 2019/12/05 22:53 UTC NOAA

KBDE 052253Z AUTO 32017KT 10SM OVC016 M05/M08 A3004 RMK AO2 SLP192 T10501083


Station Type Date Time Source
KBDE Decoded METAR 2019/12/05 22:53 UTC NOAA

BAUDETTE INTERNATIONAL AIRPORT, MN, United States (KBDE) 48-44N 94-37W 329M
Dec 05, 2019 - 05:53 PM EST / 2019.12.05 2253 UTC
Wind: from the NW (320 degrees) at 20 MPH (17 KT):0
Visibility: 10 mile(s):0
Sky conditions: overcast
Temperature: 23.0 F (-5.0 C)
Windchill: 8 F (-13 C):1
Dew Point: 17.1 F (-8.3 C)
Relative Humidity: 77%
Pressure (altimeter): 30.04 in. Hg (1017 hPa)
ob: KBDE 052253Z AUTO 32017KT 10SM OVC016 M05/M08 A3004 RMK AO2 SLP192 T10501083
cycle: 23

Station Type Date Time Source
KBDE TAF UTC NOAA

Error!

Example: see airport list